sensor_id;sensor_type;location;lat;lon;timestamp;pressure;altitude;pressure_sealevel;temperature;humidity
18918;BME280;9591;52.742;13.650;2023-12-20T00:01:49;100318.91;;;21.08;38.20
18918;BME280;9591;52.742;13.650;2023-12-20T00:04:36;100315.22;;;20.54;39.63
18918;BME280;9591;52.742;13.650;2023-12-20T00:07:23;100308.84;;;21.21;37.96
18918;BME280;9591;52.742;13.650;2023-12-20T00:10:10;100305.38;;;21.83;36.97
18918;BME280;9591;52.742;13.650;2023-12-20T00:12:58;100307.97;;;22.26;36.04
18918;BME280;9591;52.742;13.650;2023-12-20T00:15:45;100308.09;;;21.62;36.80
18918;BME280;9591;52.742;13.650;2023-12-20T00:18:33;100303.34;;;21.96;36.22
18918;BME280;9591;52.742;13.650;2023-12-20T00:21:20;100299.16;;;21.62;37.10
18918;BME280;9591;52.742;13.650;2023-12-20T00:24:07;100292.00;;;21.51;37.22
18918;BME280;9591;52.742;13.650;2023-12-20T00:26:54;100300.16;;;21.61;37.15
18918;BME280;9591;52.742;13.650;2023-12-20T00:29:41;100299.94;;;21.94;36.60
18918;BME280;9591;52.742;13.650;2023-12-20T00:32:28;100291.66;;;22.07;36.19
18918;BME280;9591;52.742;13.650;2023-12-20T00:35:16;100295.19;;;21.45;37.03
18918;BME280;9591;52.742;13.650;2023-12-20T00:38:03;100285.38;;;21.12;38.30
18918;BME280;9591;52.742;13.650;2023-12-20T00:40:50;100284.69;;;21.83;36.68
18918;BME280;9591;52.742;13.650;2023-12-20T00:43:37;100236.28;;;21.51;36.56
18918;BME280;9591;52.742;13.650;2023-12-20T00:46:24;100275.03;;;21.81;36.93
18918;BME280;9591;52.742;13.650;2023-12-20T00:49:11;100280.72;;;21.67;37.46
18918;BME280;9591;52.742;13.650;2023-12-20T00:51:59;100288.97;;;21.86;36.56
18918;BME280;9591;52.742;13.650;2023-12-20T00:54:46;100284.13;;;21.59;37.21
18918;BME280;9591;52.742;13.650;2023-12-20T00:57:33;100295.28;;;21.54;37.00
18918;BME280;9591;52.742;13.650;2023-12-20T01:00:20;100289.69;;;21.67;37.27
18918;BME280;9591;52.742;13.650;2023-12-20T01:03:07;100283.06;;;21.50;37.50
18918;BME280;9591;52.742;13.650;2023-12-20T01:05:54;100281.16;;;21.62;37.19
18918;BME280;9591;52.742;13.650;2023-12-20T01:08:42;100280.09;;;20.78;38.52
18918;BME280;9591;52.742;13.650;2023-12-20T01:11:29;100288.22;;;21.42;37.55
18918;BME280;9591;52.742;13.650;2023-12-20T01:14:16;100293.16;;;21.79;36.89
18918;BME280;9591;52.742;13.650;2023-12-20T01:17:03;100284.63;;;21.95;36.62
18918;BME280;9591;52.742;13.650;2023-12-20T01:19:50;100285.69;;;22.03;36.42
18918;BME280;9591;52.742;13.650;2023-12-20T01:22:37;100283.31;;;21.68;37.01
18918;BME280;9591;52.742;13.650;2023-12-20T01:25:25;100280.53;;;20.94;38.69
18918;BME280;9591;52.742;13.650;2023-12-20T01:28:12;100271.34;;;21.82;37.01
18918;BME280;9591;52.742;13.650;2023-12-20T01:30:59;100279.00;;;21.13;38.06
18918;BME280;9591;52.742;13.650;2023-12-20T01:33:45;100273.03;;;20.55;39.34
18918;BME280;9591;52.742;13.650;2023-12-20T01:36:33;100265.03;;;21.19;38.01
18918;BME280;9591;52.742;13.650;2023-12-20T01:39:19;100274.09;;;21.18;38.29
18918;BME280;9591;52.742;13.650;2023-12-20T01:42:15;100279.69;;;20.83;39.24
18918;BME280;9591;52.742;13.650;2023-12-20T01:45:03;100282.44;;;20.72;38.93
18918;BME280;9591;52.742;13.650;2023-12-20T01:47:50;100284.38;;;21.24;37.83
18918;BME280;9591;52.742;13.650;2023-12-20T01:50:37;100281.19;;;21.30;37.62
18918;BME280;9591;52.742;13.650;2023-12-20T01:53:25;100278.06;;;21.03;38.21
18918;BME280;9591;52.742;13.650;2023-12-20T01:56:12;100274.91;;;21.62;37.13
18918;BME280;9591;52.742;13.650;2023-12-20T01:59:01;100276.41;;;21.34;37.15
18918;BME280;9591;52.742;13.650;2023-12-20T02:01:50;100280.22;;;21.73;36.86
18918;BME280;9591;52.742;13.650;2023-12-20T02:04:37;100278.50;;;21.30;37.15
18918;BME280;9591;52.742;13.650;2023-12-20T02:07:24;100285.34;;;21.97;36.23
18918;BME280;9591;52.742;13.650;2023-12-20T02:10:12;100280.41;;;21.81;36.56
18918;BME280;9591;52.742;13.650;2023-12-20T02:12:59;100279.44;;;21.61;36.52
18918;BME280;9591;52.742;13.650;2023-12-20T02:15:47;100278.06;;;21.46;36.69
18918;BME280;9591;52.742;13.650;2023-12-20T02:18:34;100273.47;;;21.57;36.70
18918;BME280;9591;52.742;13.650;2023-12-20T02:21:31;100274.44;;;21.56;36.46
18918;BME280;9591;52.742;13.650;2023-12-20T02:24:18;100270.09;;;21.44;36.42
18918;BME280;9591;52.742;13.650;2023-12-20T02:27:07;100278.03;;;21.25;36.88
18918;BME280;9591;52.742;13.650;2023-12-20T02:29:53;100285.03;;;21.48;36.46
18918;BME280;9591;52.742;13.650;2023-12-20T02:32:40;100280.97;;;21.22;36.77
18918;BME280;9591;52.742;13.650;2023-12-20T02:35:27;100276.47;;;21.85;35.76
18918;BME280;9591;52.742;13.650;2023-12-20T02:38:16;100287.78;;;21.58;36.29
18918;BME280;9591;52.742;13.650;2023-12-20T02:41:03;100289.63;;;21.78;35.90
18918;BME280;9591;52.742;13.650;2023-12-20T02:43:50;100289.03;;;21.75;35.95
18918;BME280;9591;52.742;13.650;2023-12-20T02:46:37;100284.72;;;21.63;35.51
18918;BME280;9591;52.742;13.650;2023-12-20T02:49:24;100276.44;;;21.22;36.48
18918;BME280;9591;52.742;13.650;2023-12-20T02:52:10;100271.25;;;21.31;36.17
18918;BME280;9591;52.742;13.650;2023-12-20T02:55:00;100276.47;;;21.43;35.97
18918;BME280;9591;52.742;13.650;2023-12-20T02:57:51;100279.78;;;21.04;36.57
18918;BME280;9591;52.742;13.650;2023-12-20T03:00:38;100285.59;;;21.73;35.73
18918;BME280;9591;52.742;13.650;2023-12-20T03:03:25;100278.50;;;21.30;35.99
18918;BME280;9591;52.742;13.650;2023-12-20T03:06:16;100284.38;;;21.24;36.10
18918;BME280;9591;52.742;13.650;2023-12-20T03:09:04;100276.78;;;21.18;36.18
18918;BME280;9591;52.742;13.650;2023-12-20T03:11:52;100283.16;;;21.17;36.62
18918;BME280;9591;52.742;13.650;2023-12-20T03:14:43;100280.06;;;21.33;36.10
18918;BME280;9591;52.742;13.650;2023-12-20T03:17:33;100280.72;;;21.25;35.96
18918;BME280;9591;52.742;13.650;2023-12-20T03:20:23;100274.88;;;21.09;36.21
18918;BME280;9591;52.742;13.650;2023-12-20T03:23:11;100278.06;;;21.03;36.68
18918;BME280;9591;52.742;13.650;2023-12-20T03:25:59;100274.38;;;21.04;36.66
18918;BME280;9591;52.742;13.650;2023-12-20T03:28:47;100283.75;;;21.32;36.31
18918;BME280;9591;52.742;13.650;2023-12-20T03:31:35;100288.47;;;20.96;36.57
18918;BME280;9591;52.742;13.650;2023-12-20T03:34:21;100279.91;;;21.02;36.45
18918;BME280;9591;52.742;13.650;2023-12-20T03:37:09;100268.50;;;21.10;36.56
18918;BME280;9591;52.742;13.650;2023-12-20T03:39:56;100265.63;;;20.90;36.64
18918;BME280;9591;52.742;13.650;2023-12-20T03:42:43;100272.78;;;20.69;36.92
18918;BME280;9591;52.742;13.650;2023-12-20T03:45:31;100266.69;;;20.56;37.18
18918;BME280;9591;52.742;13.650;2023-12-20T03:48:18;100272.88;;;20.01;38.34
18918;BME280;9591;52.742;13.650;2023-12-20T03:51:05;100271.44;;;20.30;37.59
18918;BME280;9591;52.742;13.650;2023-12-20T03:53:51;100262.53;;;20.52;36.96
18918;BME280;9591;52.742;13.650;2023-12-20T03:56:38;100266.31;;;20.60;36.66
18918;BME280;9591;52.742;13.650;2023-12-20T03:59:25;100258.13;;;20.40;36.93
18918;BME280;9591;52.742;13.650;2023-12-20T04:02:14;100267.88;;;20.74;36.70
18918;BME280;9591;52.742;13.650;2023-12-20T04:05:01;100266.19;;;20.28;36.95
18918;BME280;9591;52.742;13.650;2023-12-20T04:07:48;100257.75;;;20.55;36.37
18918;BME280;9591;52.742;13.650;2023-12-20T04:10:36;100259.69;;;20.65;36.06
18918;BME280;9591;52.742;13.650;2023-12-20T04:13:22;100247.97;;;20.54;36.22
18918;BME280;9591;52.742;13.650;2023-12-20T04:16:09;100247.88;;;20.88;35.66
18918;BME280;9591;52.742;13.650;2023-12-20T04:18:58;100241.84;;;20.64;35.90
18918;BME280;9591;52.742;13.650;2023-12-20T04:21:45;100253.69;;;20.72;35.80
18918;BME280;9591;52.742;13.650;2023-12-20T04:24:31;100262.53;;;20.52;35.82
18918;BME280;9591;52.742;13.650;2023-12-20T04:27:18;100262.78;;;20.49;36.19
18918;BME280;9591;52.742;13.650;2023-12-20T04:30:07;100241.88;;;20.41;36.05
18918;BME280;9591;52.742;13.650;2023-12-20T04:32:54;100240.41;;;19.81;37.24
18918;BME280;9591;52.742;13.650;2023-12-20T04:35:43;100239.81;;;20.45;35.66
18918;BME280;9591;52.742;13.650;2023-12-20T04:38:31;100237.09;;;20.56;35.38
18918;BME280;9591;52.742;13.650;2023-12-20T04:41:18;100245.06;;;20.46;35.57
18918;BME280;9591;52.742;13.650;2023-12-20T04:44:05;100229.16;;;20.32;35.65
18918;BME280;9591;52.742;13.650;2023-12-20T04:46:52;100244.66;;;20.28;36.13
18918;BME280;9591;52.742;13.650;2023-12-20T04:49:39;100242.72;;;19.86;36.95
18918;BME280;9591;52.742;13.650;2023-12-20T04:52:27;100250.16;;;20.05;36.63
18918;BME280;9591;52.742;13.650;2023-12-20T04:55:15;100237.69;;;19.81;37.34
18918;BME280;9591;52.742;13.650;2023-12-20T04:58:01;100237.97;;;20.45;35.96
18918;BME280;9591;52.742;13.650;2023-12-20T05:00:48;100244.28;;;19.42;37.80
18918;BME280;9591;52.742;13.650;2023-12-20T05:03:35;100229.16;;;20.32;36.51
18918;BME280;9591;52.742;13.650;2023-12-20T05:06:22;100226.59;;;20.08;36.65
18918;BME280;9591;52.742;13.650;2023-12-20T05:09:11;100232.94;;;20.07;36.46
18918;BME280;9591;52.742;13.650;2023-12-20T05:11:58;100239.66;;;19.90;36.96
18918;BME280;9591;52.742;13.650;2023-12-20T05:14:46;100247.59;;;19.46;37.62
18918;BME280;9591;52.742;13.650;2023-12-20T05:17:33;100237.09;;;20.56;35.76
18918;BME280;9591;52.742;13.650;2023-12-20T05:20:20;100249.91;;;19.96;36.40
18918;BME280;9591;52.742;13.650;2023-12-20T05:23:07;100245.66;;;19.83;36.73
18918;BME280;9591;52.742;13.650;2023-12-20T05:25:55;100250.41;;;20.13;36.18
18918;BME280;9591;52.742;13.650;2023-12-20T05:28:42;100242.94;;;19.94;36.61
18918;BME280;9591;52.742;13.650;2023-12-20T05:31:29;100237.81;;;20.24;35.95
18918;BME280;9591;52.742;13.650;2023-12-20T05:34:15;100232.50;;;18.86;37.95
18918;BME280;9591;52.742;13.650;2023-12-20T05:37:03;100233.00;;;19.26;37.09
18918;BME280;9591;52.742;13.650;2023-12-20T05:39:49;100230.97;;;19.98;35.97
18918;BME280;9591;52.742;13.650;2023-12-20T05:42:37;100236.06;;;19.32;36.92
18918;BME280;9591;52.742;13.650;2023-12-20T05:45:24;100228.88;;;19.68;36.41
18918;BME280;9591;52.742;13.650;2023-12-20T05:48:11;100230.63;;;19.80;35.96
18918;BME280;9591;52.742;13.650;2023-12-20T05:50:58;100232.69;;;19.77;35.66
18918;BME280;9591;52.742;13.650;2023-12-20T05:53:45;100222.44;;;19.93;35.82
18918;BME280;9591;52.742;13.650;2023-12-20T05:56:32;100216.56;;;19.77;35.53
18918;BME280;9591;52.742;13.650;2023-12-20T05:59:20;100210.31;;;19.65;36.10
18918;BME280;9591;52.742;13.650;2023-12-20T06:02:07;100213.41;;;19.83;35.69
18918;BME280;9591;52.742;13.650;2023-12-20T06:04:54;100213.00;;;19.65;36.18
18918;BME280;9591;52.742;13.650;2023-12-20T06:07:41;100205.06;;;19.97;35.56
18918;BME280;9591;52.742;13.650;2023-12-20T06:10:28;100212.16;;;19.98;35.59
18918;BME280;9591;52.742;13.650;2023-12-20T06:13:15;100207.75;;;19.63;36.26
18918;BME280;9591;52.742;13.650;2023-12-20T06:16:05;100196.91;;;19.87;35.88
18918;BME280;9591;52.742;13.650;2023-12-20T06:18:53;100204.63;;;19.11;37.20
18918;BME280;9591;52.742;13.650;2023-12-20T06:21:39;100201.94;;;18.39;38.45
18918;BME280;9591;52.742;13.650;2023-12-20T06:24:29;100203.13;;;18.35;38.62
18918;BME280;9591;52.742;13.650;2023-12-20T06:27:18;100199.63;;;19.41;36.49
18918;BME280;9591;52.742;13.650;2023-12-20T06:30:07;100201.91;;;18.88;37.32
18918;BME280;9591;52.742;13.650;2023-12-20T06:32:55;100208.16;;;19.46;36.47
18918;BME280;9591;52.742;13.650;2023-12-20T06:35:43;100200.09;;;19.35;36.24
18918;BME280;9591;52.742;13.650;2023-12-20T06:38:30;100196.69;;;18.74;37.63
18918;BME280;9591;52.742;13.650;2023-12-20T06:41:17;100196.94;;;18.95;37.13
18918;BME280;9591;52.742;13.650;2023-12-20T06:44:04;100192.06;;;19.11;36.47
18918;BME280;9591;52.742;13.650;2023-12-20T06:46:50;100186.47;;;18.19;38.50
18918;BME280;9591;52.742;13.650;2023-12-20T06:49:39;100183.22;;;19.22;36.50
18918;BME280;9591;52.742;13.650;2023-12-20T06:52:26;100188.22;;;17.94;38.31
18918;BME280;9591;52.742;13.650;2023-12-20T06:55:13;100181.41;;;18.63;37.68
18918;BME280;9591;52.742;13.650;2023-12-20T06:58:00;100175.06;;;18.28;37.79
18918;BME280;9591;52.742;13.650;2023-12-20T07:00:47;100181.47;;;17.51;39.86
18918;BME280;9591;52.742;13.650;2023-12-20T07:03:34;100197.72;;;18.48;37.97
18918;BME280;9591;52.742;13.650;2023-12-20T07:06:22;100194.34;;;17.84;38.84
18918;BME280;9591;52.742;13.650;2023-12-20T07:09:11;100194.03;;;18.25;38.28
18918;BME280;9591;52.742;13.650;2023-12-20T07:11:59;100183.22;;;18.87;37.33
18918;BME280;9591;52.742;13.650;2023-12-20T07:14:45;100191.03;;;18.66;37.58
18918;BME280;9591;52.742;13.650;2023-12-20T07:17:32;100190.75;;;18.45;37.99
18918;BME280;9591;52.742;13.650;2023-12-20T07:20:19;100189.00;;;18.20;38.77
18918;BME280;9591;52.742;13.650;2023-12-20T07:23:08;100182.88;;;17.82;39.17
18918;BME280;9591;52.742;13.650;2023-12-20T07:25:55;100185.44;;;17.96;39.23
18918;BME280;9591;52.742;13.650;2023-12-20T07:28:41;100180.59;;;18.01;39.36
18918;BME280;9591;52.742;13.650;2023-12-20T07:31:28;100186.53;;;18.90;37.59
18918;BME280;9591;52.742;13.650;2023-12-20T07:34:16;100188.09;;;18.45;38.21
18918;BME280;9591;52.742;13.650;2023-12-20T07:37:03;100177.19;;;18.35;38.21
18918;BME280;9591;52.742;13.650;2023-12-20T07:39:51;100178.47;;;18.06;38.85
18918;BME280;9591;52.742;13.650;2023-12-20T07:42:38;100176.53;;;18.92;37.34
18918;BME280;9591;52.742;13.650;2023-12-20T07:45:25;100175.13;;;18.39;38.01
18918;BME280;9591;52.742;13.650;2023-12-20T07:48:12;100178.03;;;19.08;37.01
18918;BME280;9591;52.742;13.650;2023-12-20T07:50:59;100179.47;;;18.65;38.07
18918;BME280;9591;52.742;13.650;2023-12-20T07:53:45;100181.34;;;18.16;38.80
18918;BME280;9591;52.742;13.650;2023-12-20T07:56:34;100178.88;;;18.97;37.54
18918;BME280;9591;52.742;13.650;2023-12-20T07:59:21;100171.81;;;19.07;37.28
18918;BME280;9591;52.742;13.650;2023-12-20T08:02:16;100175.06;;;17.66;40.26
18918;BME280;9591;52.742;13.650;2023-12-20T08:05:04;100179.53;;;18.40;38.79
18918;BME280;9591;52.742;13.650;2023-12-20T08:07:50;100177.19;;;17.99;39.45
18918;BME280;9591;52.742;13.650;2023-12-20T08:10:37;100182.75;;;17.58;40.43
18918;BME280;9591;52.742;13.650;2023-12-20T08:13:25;100193.59;;;18.31;38.89
18918;BME280;9591;52.742;13.650;2023-12-20T08:16:12;100185.59;;;18.55;38.29
18918;BME280;9591;52.742;13.650;2023-12-20T08:19:01;100181.56;;;18.00;39.51
18918;BME280;9591;52.742;13.650;2023-12-20T08:21:48;100174.53;;;18.59;37.87
18918;BME280;9591;52.742;13.650;2023-12-20T08:24:35;100177.31;;;17.85;39.14
18918;BME280;9591;52.742;13.650;2023-12-20T08:27:22;100173.22;;;18.05;39.20
18918;BME280;9591;52.742;13.650;2023-12-20T08:30:10;100168.22;;;18.60;37.92
18918;BME280;9591;52.742;13.650;2023-12-20T08:32:59;100169.81;;;17.77;39.59
18918;BME280;9591;52.742;13.650;2023-12-20T08:35:46;100180.16;;;19.61;36.54
18918;BME280;9591;52.742;13.650;2023-12-20T08:38:33;100174.63;;;18.71;37.84
18918;BME280;9591;52.742;13.650;2023-12-20T08:41:20;100175.94;;;19.46;36.55
18918;BME280;9591;52.742;13.650;2023-12-20T08:44:07;100180.97;;;19.05;37.53
18918;BME280;9591;52.742;13.650;2023-12-20T08:46:55;100170.94;;;18.95;37.52
18918;BME280;9591;52.742;13.650;2023-12-20T08:49:42;100163.66;;;19.55;36.45
18918;BME280;9591;52.742;13.650;2023-12-20T08:52:29;100165.69;;;19.40;37.17
18918;BME280;9591;52.742;13.650;2023-12-20T08:55:17;100150.22;;;20.11;35.67
18918;BME280;9591;52.742;13.650;2023-12-20T08:58:05;100143.88;;;19.10;37.19
18918;BME280;9591;52.742;13.650;2023-12-20T09:00:53;100136.53;;;19.47;36.36
18918;BME280;9591;52.742;13.650;2023-12-20T09:03:42;100146.44;;;17.92;39.48
18918;BME280;9591;52.742;13.650;2023-12-20T09:06:30;100154.56;;;19.33;36.97
18918;BME280;9591;52.742;13.650;2023-12-20T09:09:17;100160.13;;;19.54;36.42
18918;BME280;9591;52.742;13.650;2023-12-20T09:12:04;100158.78;;;19.60;36.21
18918;BME280;9591;52.742;13.650;2023-12-20T09:14:52;100144.00;;;18.97;37.54
18918;BME280;9591;52.742;13.650;2023-12-20T09:17:39;100144.31;;;19.39;36.92
18918;BME280;9591;52.742;13.650;2023-12-20T09:20:29;100145.47;;;18.29;38.35
18918;BME280;9591;52.742;13.650;2023-12-20T09:23:15;100147.06;;;19.04;37.39
18918;BME280;9591;52.742;13.650;2023-12-20T09:26:04;100145.59;;;17.91;38.89
18918;BME280;9591;52.742;13.650;2023-12-20T09:28:51;100138.28;;;18.54;38.44
18918;BME280;9591;52.742;13.650;2023-12-20T09:31:37;100133.03;;;19.00;37.27
18918;BME280;9591;52.742;13.650;2023-12-20T09:34:25;100092.94;;;18.51;38.01
18918;BME280;9591;52.742;13.650;2023-12-20T09:37:14;100125.66;;;19.48;36.41
18918;BME280;9591;52.742;13.650;2023-12-20T09:40:01;100128.41;;;19.59;36.43
18918;BME280;9591;52.742;13.650;2023-12-20T09:42:51;100129.63;;;18.98;37.74
18918;BME280;9591;52.742;13.650;2023-12-20T09:45:45;100121.63;;;19.31;36.61
18918;BME280;9591;52.742;13.650;2023-12-20T09:48:32;100126.53;;;18.91;37.62
18918;BME280;9591;52.742;13.650;2023-12-20T09:51:19;100120.16;;;19.39;36.96
18918;BME280;9591;52.742;13.650;2023-12-20T09:54:09;100119.25;;;19.62;36.42
18918;BME280;9591;52.742;13.650;2023-12-20T09:56:56;100112.00;;;18.83;37.31
18918;BME280;9591;52.742;13.650;2023-12-20T09:59:43;100109.75;;;19.01;37.28
18918;BME280;9591;52.742;13.650;2023-12-20T10:02:30;100110.41;;;18.56;38.29
18918;BME280;9591;52.742;13.650;2023-12-20T10:05:17;100104.13;;;19.04;37.04
18918;BME280;9591;52.742;13.650;2023-12-20T10:08:06;100099.03;;;20.01;35.68
18918;BME280;9591;52.742;13.650;2023-12-20T10:10:54;100097.72;;;18.58;37.89
18918;BME280;9591;52.742;13.650;2023-12-20T10:13:43;100091.13;;;18.75;37.49
18918;BME280;9591;52.742;13.650;2023-12-20T10:16:31;100080.75;;;19.50;36.66
18918;BME280;9591;52.742;13.650;2023-12-20T10:19:19;100080.94;;;19.14;37.02
18918;BME280;9591;52.742;13.650;2023-12-20T10:22:06;100066.84;;;19.45;36.53
18918;BME280;9591;52.742;13.650;2023-12-20T10:24:53;100058.28;;;19.18;36.77
18918;BME280;9591;52.742;13.650;2023-12-20T10:27:41;100054.66;;;20.61;34.38
18918;BME280;9591;52.742;13.650;2023-12-20T10:30:28;100058.19;;;19.86;35.74
18918;BME280;9591;52.742;13.650;2023-12-20T10:33:23;100064.25;;;18.40;38.46
18918;BME280;9591;52.742;13.650;2023-12-20T10:36:12;100058.13;;;19.08;36.80
18918;BME280;9591;52.742;13.650;2023-12-20T10:38:59;100052.69;;;18.63;37.20
18918;BME280;9591;52.742;13.650;2023-12-20T10:41:47;100041.69;;;19.24;37.30
18918;BME280;9591;52.742;13.650;2023-12-20T10:44:35;100032.00;;;18.53;37.62
18918;BME280;9591;52.742;13.650;2023-12-20T10:47:22;100018.88;;;18.96;37.24
18918;BME280;9591;52.742;13.650;2023-12-20T10:50:09;100022.16;;;19.89;35.66
18918;BME280;9591;52.742;13.650;2023-12-20T10:52:57;100016.66;;;19.23;37.20
18918;BME280;9591;52.742;13.650;2023-12-20T10:55:44;100016.94;;;19.54;36.29
18918;BME280;9591;52.742;13.650;2023-12-20T10:58:33;100020.69;;;19.29;36.77
18918;BME280;9591;52.742;13.650;2023-12-20T11:01:23;100016.44;;;19.60;36.20
18918;BME280;9591;52.742;13.650;2023-12-20T11:04:14;100003.75;;;19.40;35.80
18918;BME280;9591;52.742;13.650;2023-12-20T11:07:10;100009.34;;;19.70;36.14
18918;BME280;9591;52.742;13.650;2023-12-20T11:10:10;99993.00;;;19.40;36.28
18918;BME280;9591;52.742;13.650;2023-12-20T11:13:07;99995.16;;;18.67;37.58
18918;BME280;9591;52.742;13.650;2023-12-20T11:15:58;99972.88;;;19.56;35.87
18918;BME280;9591;52.742;13.650;2023-12-20T11:18:47;99976.41;;;19.23;36.40
18918;BME280;9591;52.742;13.650;2023-12-20T11:21:33;99968.28;;;18.56;37.37
18918;BME280;9591;52.742;13.650;2023-12-20T11:24:21;99962.66;;;18.94;37.31
18918;BME280;9591;52.742;13.650;2023-12-20T11:27:07;99944.25;;;20.42;35.13
18918;BME280;9591;52.742;13.650;2023-12-20T11:29:56;99943.81;;;19.39;36.25
18918;BME280;9591;52.742;13.650;2023-12-20T11:32:45;99944.59;;;18.39;37.46
18918;BME280;9591;52.742;13.650;2023-12-20T11:35:34;99937.47;;;19.40;36.09
18918;BME280;9591;52.742;13.650;2023-12-20T11:38:22;99918.72;;;18.73;37.23
18918;BME280;9591;52.742;13.650;2023-12-20T11:41:11;99937.69;;;19.71;36.00
18918;BME280;9591;52.742;13.650;2023-12-20T11:43:57;99925.00;;;18.50;37.76
18918;BME280;9591;52.742;13.650;2023-12-20T11:46:44;99917.03;;;18.83;37.42
18918;BME280;9591;52.742;13.650;2023-12-20T11:49:31;99897.28;;;18.16;38.32
18918;BME280;9591;52.742;13.650;2023-12-20T11:52:19;99902.28;;;19.66;36.08
18918;BME280;9591;52.742;13.650;2023-12-20T11:55:06;99895.88;;;18.45;37.79
18918;BME280;9591;52.742;13.650;2023-12-20T11:57:53;99887.66;;;19.47;36.20
18918;BME280;9591;52.742;13.650;2023-12-20T12:00:41;99873.66;;;19.87;36.10
18918;BME280;9591;52.742;13.650;2023-12-20T12:03:28;99869.13;;;19.55;36.19
18918;BME280;9591;52.742;13.650;2023-12-20T12:06:16;99875.34;;;18.79;37.59
18918;BME280;9591;52.742;13.650;2023-12-20T12:09:05;99857.41;;;19.45;36.36
18918;BME280;9591;52.742;13.650;2023-12-20T12:11:52;99859.50;;;19.30;36.86
18918;BME280;9591;52.742;13.650;2023-12-20T12:14:39;99846.53;;;19.58;36.47
18918;BME280;9591;52.742;13.650;2023-12-20T12:17:25;99834.72;;;19.81;36.39
18918;BME280;9591;52.742;13.650;2023-12-20T12:20:13;99832.00;;;19.49;37.24
18918;BME280;9591;52.742;13.650;2023-12-20T12:23:00;99832.91;;;18.73;38.91
18918;BME280;9591;52.742;13.650;2023-12-20T12:25:49;99826.69;;;18.95;38.16
18918;BME280;9591;52.742;13.650;2023-12-20T12:28:37;99817.75;;;19.06;38.08
18918;BME280;9591;52.742;13.650;2023-12-20T12:31:26;99819.38;;;19.93;36.67
18918;BME280;9591;52.742;13.650;2023-12-20T12:34:13;99811.38;;;19.50;37.39
18918;BME280;9591;52.742;13.650;2023-12-20T12:37:02;99823.28;;;17.80;40.43
18918;BME280;9591;52.742;13.650;2023-12-20T12:39:50;99814.75;;;19.20;37.98
18918;BME280;9591;52.742;13.650;2023-12-20T12:42:42;99811.22;;;18.76;38.92
18918;BME280;9591;52.742;13.650;2023-12-20T12:45:29;99823.03;;;19.28;37.90
18918;BME280;9591;52.742;13.650;2023-12-20T12:48:16;99824.50;;;19.32;38.26
18918;BME280;9591;52.742;13.650;2023-12-20T12:51:04;99839.72;;;19.54;37.66
18918;BME280;9591;52.742;13.650;2023-12-20T12:53:53;99848.00;;;18.96;38.51
18918;BME280;9591;52.742;13.650;2023-12-20T12:56:42;99839.03;;;19.18;38.69
18918;BME280;9591;52.742;13.650;2023-12-20T12:59:30;99872.28;;;18.73;39.41
18918;BME280;9591;52.742;13.650;2023-12-20T13:02:17;99863.97;;;17.96;40.30
18918;BME280;9591;52.742;13.650;2023-12-20T13:05:04;99836.94;;;17.64;40.54
18918;BME280;9591;52.742;13.650;2023-12-20T13:07:53;99856.53;;;17.64;39.36
18918;BME280;9591;52.742;13.650;2023-12-20T13:10:41;99861.72;;;17.55;38.75
18918;BME280;9591;52.742;13.650;2023-12-20T13:13:28;99862.78;;;18.00;37.84
18918;BME280;9591;52.742;13.650;2023-12-20T13:16:17;99858.34;;;16.67;39.61
18918;BME280;9591;52.742;13.650;2023-12-20T13:19:05;99851.91;;;17.43;39.14
18918;BME280;9591;52.742;13.650;2023-12-20T13:21:53;99836.50;;;16.86;39.61
18918;BME280;9591;52.742;13.650;2023-12-20T13:24:40;99831.06;;;17.83;38.23
18918;BME280;9591;52.742;13.650;2023-12-20T13:27:30;99837.00;;;17.51;38.81
18918;BME280;9591;52.742;13.650;2023-12-20T13:30:17;99840.38;;;17.18;39.30
18918;BME280;9591;52.742;13.650;2023-12-20T13:33:06;99846.88;;;18.32;37.55
18918;BME280;9591;52.742;13.650;2023-12-20T13:35:52;99834.97;;;18.70;36.87
18918;BME280;9591;52.742;13.650;2023-12-20T13:38:39;99835.69;;;18.49;37.27
18918;BME280;9591;52.742;13.650;2023-12-20T13:41:26;99826.09;;;18.69;37.24
18918;BME280;9591;52.742;13.650;2023-12-20T13:44:13;99828.09;;;18.32;38.17
18918;BME280;9591;52.742;13.650;2023-12-20T13:47:00;99832.41;;;18.90;37.12
18918;BME280;9591;52.742;13.650;2023-12-20T13:49:50;99837.53;;;18.93;37.23
18918;BME280;9591;52.742;13.650;2023-12-20T13:52:37;99839.44;;;18.13;39.32
18918;BME280;9591;52.742;13.650;2023-12-20T13:55:24;99842.47;;;18.31;38.78
18918;BME280;9591;52.742;13.650;2023-12-20T13:58:13;99811.66;;;18.25;38.53
18918;BME280;9591;52.742;13.650;2023-12-20T14:00:59;99850.22;;;18.91;37.84
18918;BME280;9591;52.742;13.650;2023-12-20T14:03:46;99852.47;;;19.07;37.70
18918;BME280;9591;52.742;13.650;2023-12-20T14:06:34;99845.44;;;19.06;37.46
18918;BME280;9591;52.742;13.650;2023-12-20T14:09:21;99837.66;;;19.03;37.73
18918;BME280;9591;52.742;13.650;2023-12-20T14:12:08;99854.91;;;19.21;36.72
18918;BME280;9591;52.742;13.650;2023-12-20T14:14:55;99842.34;;;19.11;37.27
18918;BME280;9591;52.742;13.650;2023-12-20T14:17:42;99853.31;;;19.73;36.30
18918;BME280;9591;52.742;13.650;2023-12-20T14:20:29;99869.50;;;17.71;39.62
18918;BME280;9591;52.742;13.650;2023-12-20T14:23:18;99863.13;;;18.97;37.58
18918;BME280;9591;52.742;13.650;2023-12-20T14:26:05;99872.28;;;18.73;37.91
18918;BME280;9591;52.742;13.650;2023-12-20T14:28:51;99872.28;;;18.95;37.46
18918;BME280;9591;52.742;13.650;2023-12-20T14:31:38;99870.03;;;19.22;36.83
18918;BME280;9591;52.742;13.650;2023-12-20T14:34:26;99878.66;;;18.14;38.88
18918;BME280;9591;52.742;13.650;2023-12-20T14:37:13;99895.09;;;18.21;39.03
18918;BME280;9591;52.742;13.650;2023-12-20T14:40:03;99903.75;;;18.13;38.82